createdAt,value
2022-10-11T00:07:11.793Z,12.70
2022-10-11T00:17:13.832Z,12.60
2022-10-11T00:27:15.671Z,12.60
2022-10-11T00:37:17.606Z,12.50
2022-10-11T00:47:23.247Z,12.40
2022-10-11T00:57:29.453Z,12.40
2022-10-11T01:07:32.994Z,12.40
2022-10-11T01:17:53.307Z,12.40
2022-10-11T01:28:33.538Z,12.30
2022-10-11T01:38:59.534Z,12.20
2022-10-11T01:49:08.039Z,12.20
2022-10-11T01:59:31.999Z,12.10
2022-10-11T02:09:56.620Z,12.00
2022-10-11T02:20:03.827Z,12.00
2022-10-11T02:30:07.461Z,11.90
2022-10-11T02:40:32.742Z,11.80
2022-10-11T02:50:42.057Z,11.60
2022-10-11T03:00:44.079Z,11.70
2022-10-11T03:10:45.976Z,11.70
2022-10-11T03:20:47.888Z,11.80
2022-10-11T03:30:53.527Z,11.70
2022-10-11T03:40:55.339Z,11.70
2022-10-11T03:50:57.353Z,11.70
2022-10-11T04:01:14.729Z,11.70
2022-10-11T04:11:16.741Z,11.70
2022-10-11T04:21:18.515Z,11.80
2022-10-11T04:31:21.777Z,11.70
2022-10-11T04:41:23.953Z,11.40
2022-10-11T04:51:29.002Z,11.10
2022-10-11T05:01:31.078Z,11.00
2022-10-11T05:11:33.121Z,11.00
2022-10-11T05:21:34.979Z,11.00
2022-10-11T05:31:36.948Z,11.10
2022-10-11T05:41:38.849Z,11.10
2022-10-11T05:51:40.747Z,11.10
2022-10-11T06:01:44.173Z,11.20
2022-10-11T06:11:49.060Z,11.20
2022-10-11T06:21:51.397Z,11.50
2022-10-11T06:31:53.331Z,11.80
2022-10-11T06:41:55.276Z,12.00
2022-10-11T06:52:06.385Z,13.00
2022-10-11T07:02:09.530Z,13.10
2022-10-11T07:12:14.875Z,12.60
2022-10-11T07:22:16.822Z,12.50
2022-10-11T07:32:18.706Z,12.40
2022-10-11T07:42:20.691Z,13.10
2022-10-11T07:52:22.621Z,13.30
2022-10-11T08:02:24.504Z,12.80
2022-10-11T08:12:49.104Z,12.50
2022-10-11T08:22:50.926Z,12.10
2022-10-11T08:32:54.232Z,12.20
2022-10-11T08:43:06.362Z,12.30
2022-10-11T08:53:19.689Z,12.30
2022-10-11T09:03:43.950Z,12.10
2022-10-11T09:14:20.582Z,12.20
2022-10-11T09:24:46.358Z,12.40
2022-10-11T09:35:11.064Z,12.50
2022-10-11T09:45:20.964Z,12.50
2022-10-11T09:56:02.735Z,12.50
2022-10-11T10:06:23.245Z,12.10
2022-10-11T10:16:29.600Z,12.50
2022-10-11T10:26:32.784Z,12.60
2022-10-11T10:36:38.361Z,12.80
2022-10-11T10:47:09.321Z,12.80
2022-10-11T10:57:31.498Z,12.90
2022-10-11T11:07:45.942Z,13.20
2022-10-11T11:18:03.481Z,13.70
2022-10-11T11:28:16.279Z,13.70
2022-10-11T11:38:29.862Z,13.90
2022-10-11T11:48:32.046Z,14.30
2022-10-11T11:59:16.136Z,13.80
2022-10-11T12:09:17.910Z,14.70
2022-10-11T12:19:20.694Z,14.60
2022-10-11T12:29:43.073Z,15.00
2022-10-11T12:39:52.994Z,14.90
2022-10-11T12:50:26.421Z,15.00
2022-10-11T13:00:40.462Z,14.80
2022-10-11T13:10:47.652Z,14.90
2022-10-11T13:20:49.613Z,14.70
2022-10-11T13:30:56.383Z,14.70
2022-10-11T13:41:01.150Z,14.60
2022-10-11T13:51:39.850Z,14.60
2022-10-11T14:01:45.365Z,14.40
2022-10-11T14:11:49.936Z,14.20
2022-10-11T14:21:53.715Z,14.40
2022-10-11T14:32:01.941Z,14.30
2022-10-11T14:42:04.101Z,14.10
2022-10-11T14:52:07.693Z,13.90
2022-10-11T15:02:12.200Z,13.70
2022-10-11T15:12:14.015Z,13.60
2022-10-11T15:22:15.843Z,13.30
2022-10-11T15:32:17.682Z,13.10
2022-10-11T15:42:19.521Z,12.90
2022-10-11T15:52:21.408Z,12.60
2022-10-11T16:02:23.394Z,12.40
2022-10-11T16:12:25.217Z,12.00
2022-10-11T16:22:27.249Z,11.60
2022-10-11T16:32:29.182Z,11.00
2022-10-11T16:42:31.280Z,10.60
2022-10-11T16:52:33.133Z,10.20
2022-10-11T17:02:36.156Z,10.50
2022-10-11T17:12:38.066Z,10.00
2022-10-11T17:22:39.937Z,9.60
2022-10-11T17:32:42.979Z,9.40
2022-10-11T17:42:44.847Z,8.70
2022-10-11T17:52:47.006Z,8.50
2022-10-11T18:02:49.146Z,8.50
2022-10-11T18:12:54.980Z,8.10
2022-10-11T18:22:56.891Z,7.80
2022-10-11T18:33:04.128Z,7.60
2022-10-11T18:43:09.214Z,7.40
2022-10-11T18:53:14.115Z,7.20
2022-10-11T19:03:16.034Z,7.20
2022-10-11T19:13:17.889Z,6.90
2022-10-11T19:23:19.826Z,6.60
2022-10-11T19:33:21.660Z,6.50
2022-10-11T19:43:23.590Z,6.50
2022-10-11T19:53:25.536Z,6.40
2022-10-11T20:03:27.428Z,6.10
2022-10-11T20:13:35.361Z,6.10
2022-10-11T20:23:38.016Z,6.10
2022-10-11T20:33:40.202Z,5.90
2022-10-11T20:43:42.789Z,5.60
2022-10-11T20:53:50.373Z,5.40
2022-10-11T21:03:54.075Z,5.50
2022-10-11T21:14:01.660Z,5.40
2022-10-11T21:24:03.576Z,5.30
2022-10-11T21:34:05.359Z,5.20
2022-10-11T21:44:10.470Z,5.20
2022-10-11T21:54:18.637Z,5.10
2022-10-11T22:04:20.441Z,4.90
2022-10-11T22:14:22.453Z,4.80
2022-10-11T22:24:24.492Z,4.70
2022-10-11T22:34:29.706Z,4.40
2022-10-11T22:44:31.774Z,4.60
2022-10-11T22:54:33.781Z,4.50
2022-10-11T23:04:39.453Z,4.30
2022-10-11T23:14:41.293Z,4.20
2022-10-11T23:24:44.236Z,4.30
2022-10-11T23:34:47.395Z,4.20
2022-10-11T23:44:49.210Z,4.10
2022-10-11T23:54:52.342Z,4.10
